createdAt,value
2018-07-26T00:01:19.209Z,25.00
2018-07-26T00:03:48.071Z,24.72
2018-07-26T00:06:17.276Z,24.63
2018-07-26T00:08:46.091Z,24.64
2018-07-26T00:11:16.446Z,24.56
2018-07-26T00:13:45.435Z,24.45
2018-07-26T00:16:14.159Z,24.45
2018-07-26T00:18:43.082Z,24.43
2018-07-26T00:21:11.772Z,24.50
2018-07-26T00:23:40.560Z,24.44
2018-07-26T00:26:09.337Z,24.40
2018-07-26T00:28:38.012Z,24.35
2018-07-26T00:31:06.800Z,24.38
2018-07-26T00:33:35.523Z,24.26
2018-07-26T00:36:04.396Z,24.20
2018-07-26T00:38:33.128Z,24.14
2018-07-26T00:41:01.889Z,24.15
2018-07-26T00:43:30.676Z,24.10
2018-07-26T00:45:59.508Z,24.14
2018-07-26T00:48:28.236Z,24.16
2018-07-26T00:50:56.993Z,24.13
2018-07-26T00:53:25.730Z,24.14
2018-07-26T00:55:54.497Z,24.14
2018-07-26T00:58:23.247Z,24.10
2018-07-26T01:00:51.956Z,24.11
2018-07-26T01:03:20.721Z,24.09
2018-07-26T01:05:49.505Z,23.98
2018-07-26T01:08:18.280Z,24.09
2018-07-26T01:10:47.045Z,24.29
2018-07-26T01:13:15.930Z,24.13
2018-07-26T01:15:44.680Z,24.18
2018-07-26T01:18:13.428Z,24.17
2018-07-26T01:20:42.156Z,24.03
2018-07-26T01:23:10.987Z,23.80
2018-07-26T01:25:39.750Z,23.72
2018-07-26T01:28:08.667Z,23.74
2018-07-26T01:30:37.407Z,23.83
2018-07-26T01:33:06.282Z,23.99
2018-07-26T01:35:35.105Z,24.02
2018-07-26T01:38:03.835Z,24.02
2018-07-26T01:40:32.616Z,23.96
2018-07-26T01:43:12.693Z,23.92
2018-07-26T01:45:41.483Z,23.84
2018-07-26T01:48:10.173Z,23.84
2018-07-26T01:50:38.913Z,23.76
2018-07-26T01:53:07.846Z,23.83
2018-07-26T01:55:36.585Z,23.79
2018-07-26T01:58:05.304Z,23.76
2018-07-26T02:00:34.029Z,23.66
2018-07-26T02:03:02.763Z,23.60
2018-07-26T02:05:31.552Z,23.39
2018-07-26T02:08:00.340Z,23.26
2018-07-26T02:10:29.111Z,23.00
2018-07-26T02:12:57.838Z,22.79
2018-07-26T02:15:26.590Z,22.77
2018-07-26T02:17:55.326Z,22.92
2018-07-26T02:20:24.099Z,22.86
2018-07-26T02:22:52.886Z,23.10
2018-07-26T02:25:22.207Z,23.05
2018-07-26T02:27:50.860Z,23.06
2018-07-26T02:30:19.730Z,23.16
2018-07-26T02:32:48.436Z,23.40
2018-07-26T02:35:17.279Z,23.31
2018-07-26T02:37:45.940Z,23.14
2018-07-26T02:40:14.677Z,22.95
2018-07-26T02:42:43.502Z,22.72
2018-07-26T02:45:12.293Z,22.78
2018-07-26T02:47:41.012Z,22.91
2018-07-26T02:50:10.108Z,22.94
2018-07-26T02:52:38.879Z,22.92
2018-07-26T02:55:07.667Z,22.95
2018-07-26T02:57:36.389Z,23.00
2018-07-26T03:00:05.818Z,22.77
2018-07-26T03:02:34.545Z,22.55
2018-07-26T03:05:03.340Z,22.95
2018-07-26T03:07:32.128Z,22.98
2018-07-26T03:10:00.864Z,22.99
2018-07-26T03:12:29.744Z,22.85
2018-07-26T03:14:58.484Z,22.77
2018-07-26T03:17:27.338Z,22.47
2018-07-26T03:19:56.068Z,22.48
2018-07-26T03:22:24.964Z,22.53
2018-07-26T03:24:53.893Z,22.05
2018-07-26T03:27:22.674Z,21.87
2018-07-26T03:29:51.376Z,21.95
2018-07-26T03:32:20.196Z,21.82
2018-07-26T03:34:49.005Z,21.54
2018-07-26T03:37:17.766Z,21.65
2018-07-26T03:39:46.550Z,21.79
2018-07-26T03:42:15.278Z,21.78
2018-07-26T03:44:44.004Z,21.93
2018-07-26T03:47:12.788Z,21.98
2018-07-26T03:49:41.504Z,21.96
2018-07-26T03:52:10.256Z,21.94
2018-07-26T03:54:38.960Z,21.89
2018-07-26T03:57:07.960Z,21.93
2018-07-26T03:59:36.727Z,22.01
2018-07-26T04:02:05.460Z,22.20
2018-07-26T04:04:34.202Z,22.28
2018-07-26T04:07:02.979Z,22.42
2018-07-26T04:09:31.846Z,22.36
2018-07-26T04:12:00.562Z,22.48
2018-07-26T04:14:29.341Z,22.66
2018-07-26T04:16:58.133Z,22.52
2018-07-26T04:19:26.823Z,22.49
2018-07-26T04:21:55.649Z,22.61
2018-07-26T04:24:24.401Z,22.70
2018-07-26T04:26:54.107Z,22.78
2018-07-26T04:29:22.898Z,22.96
2018-07-26T04:31:51.685Z,22.97
2018-07-26T04:34:20.301Z,23.18
2018-07-26T04:36:49.022Z,23.13
2018-07-26T04:39:17.774Z,23.26
2018-07-26T04:41:46.559Z,23.23
2018-07-26T04:44:15.328Z,23.43
2018-07-26T04:46:44.138Z,23.42
2018-07-26T04:49:12.907Z,23.62
2018-07-26T04:51:41.592Z,23.68
2018-07-26T04:54:10.417Z,23.72
2018-07-26T04:56:39.116Z,23.61
2018-07-26T04:59:07.931Z,23.82
2018-07-26T05:01:36.949Z,23.74
2018-07-26T05:04:05.732Z,23.80
2018-07-26T05:06:34.479Z,23.84
2018-07-26T05:09:03.765Z,23.95
2018-07-26T05:11:32.504Z,24.16
2018-07-26T05:14:01.316Z,24.29
2018-07-26T05:16:30.023Z,24.42
2018-07-26T05:18:58.824Z,24.36
2018-07-26T05:21:27.453Z,24.36
2018-07-26T05:23:56.282Z,24.26
2018-07-26T05:26:25.036Z,24.36
2018-07-26T05:28:53.837Z,24.46
2018-07-26T05:31:22.607Z,24.53
2018-07-26T05:33:51.368Z,24.72
2018-07-26T05:36:20.095Z,24.89
2018-07-26T05:38:48.899Z,24.98
2018-07-26T05:41:17.763Z,24.97
2018-07-26T05:43:46.545Z,24.92
2018-07-26T05:46:15.257Z,25.10
2018-07-26T05:48:43.944Z,25.08
2018-07-26T05:51:12.681Z,25.17
2018-07-26T05:53:41.413Z,25.22
2018-07-26T05:56:10.207Z,25.23
2018-07-26T05:58:38.982Z,25.32
2018-07-26T06:01:07.720Z,25.29
2018-07-26T06:03:36.458Z,25.34
2018-07-26T06:06:05.407Z,25.36
2018-07-26T06:08:34.134Z,25.45
2018-07-26T06:11:02.872Z,25.56
2018-07-26T06:13:31.635Z,25.53
2018-07-26T06:16:00.424Z,25.48
2018-07-26T06:18:29.188Z,25.45
2018-07-26T06:20:57.929Z,25.37
2018-07-26T06:23:26.786Z,25.57
2018-07-26T06:25:55.517Z,25.59
2018-07-26T06:28:24.292Z,25.56
2018-07-26T06:30:53.030Z,25.62
2018-07-26T06:33:21.806Z,25.67
2018-07-26T06:35:50.660Z,25.77
2018-07-26T06:38:19.393Z,25.80
2018-07-26T06:40:48.101Z,26.02
2018-07-26T06:43:16.924Z,26.10
2018-07-26T06:45:45.816Z,26.09
2018-07-26T06:48:14.600Z,26.08
2018-07-26T06:50:43.388Z,26.15
2018-07-26T06:53:12.265Z,26.33
2018-07-26T06:55:40.989Z,26.42
2018-07-26T06:58:09.699Z,26.67
2018-07-26T07:00:38.462Z,26.94
2018-07-26T07:03:07.209Z,27.45
2018-07-26T07:05:35.928Z,27.57
2018-07-26T07:08:04.749Z,27.90
2018-07-26T07:10:33.852Z,28.16
2018-07-26T07:13:02.559Z,28.29
2018-07-26T07:15:31.421Z,28.13
2018-07-26T07:18:03.916Z,28.32
2018-07-26T07:20:32.947Z,28.34
2018-07-26T07:23:02.862Z,28.79
2018-07-26T07:25:31.931Z,28.69
2018-07-26T07:28:01.573Z,29.42
2018-07-26T07:30:30.364Z,29.47
2018-07-26T07:32:59.097Z,29.63
2018-07-26T07:35:27.959Z,29.81
2018-07-26T07:37:56.648Z,29.87
2018-07-26T07:40:27.138Z,29.89
2018-07-26T07:42:56.081Z,29.77
2018-07-26T07:45:24.744Z,30.05
2018-07-26T07:47:53.488Z,29.78
2018-07-26T07:50:22.204Z,30.03
2018-07-26T07:52:50.959Z,30.20
2018-07-26T07:55:19.669Z,30.23
2018-07-26T07:57:48.520Z,30.20
2018-07-26T08:00:17.243Z,30.62
2018-07-26T08:02:45.976Z,30.52
2018-07-26T08:05:14.764Z,30.56
2018-07-26T08:07:43.445Z,30.84
2018-07-26T08:10:12.393Z,30.85
2018-07-26T08:12:41.148Z,30.94
2018-07-26T08:15:10.602Z,31.23
2018-07-26T08:17:39.355Z,31.12
2018-07-26T08:20:09.200Z,31.23
2018-07-26T08:22:37.888Z,31.28
2018-07-26T08:25:07.382Z,31.38
2018-07-26T08:27:36.077Z,31.28
2018-07-26T08:30:06.552Z,31.61
2018-07-26T08:32:35.298Z,32.05
2018-07-26T08:35:04.101Z,32.39
2018-07-26T08:37:32.789Z,32.38
2018-07-26T08:40:01.719Z,32.27
2018-07-26T08:42:30.412Z,32.14
2018-07-26T08:44:59.135Z,32.16
2018-07-26T08:47:27.891Z,32.44
2018-07-26T08:49:56.713Z,32.48
2018-07-26T08:52:25.411Z,32.78
2018-07-26T08:54:54.089Z,33.50
2018-07-26T08:57:22.832Z,33.34
2018-07-26T08:59:51.512Z,33.35
2018-07-26T09:02:20.284Z,33.19
2018-07-26T09:04:48.936Z,33.34
2018-07-26T09:07:17.645Z,33.70
2018-07-26T09:09:46.398Z,33.76
2018-07-26T09:12:15.067Z,33.92
2018-07-26T09:14:43.716Z,34.29
2018-07-26T09:17:12.507Z,34.75
2018-07-26T09:19:41.199Z,34.77
2018-07-26T09:22:09.859Z,34.45
2018-07-26T09:24:41.284Z,34.11
2018-07-26T09:27:11.316Z,33.82
2018-07-26T09:29:40.118Z,34.52
2018-07-26T09:32:08.806Z,34.50
2018-07-26T09:34:37.503Z,34.57
2018-07-26T09:37:06.191Z,34.88
2018-07-26T09:39:34.896Z,35.05
2018-07-26T09:42:03.616Z,35.39
2018-07-26T09:44:33.268Z,35.44
2018-07-26T09:47:01.983Z,35.22
2018-07-26T09:49:30.701Z,34.62
2018-07-26T09:51:59.415Z,35.22
2018-07-26T09:54:28.101Z,35.48
2018-07-26T09:56:56.757Z,36.00
2018-07-26T09:59:25.445Z,35.92
2018-07-26T10:01:54.156Z,35.96
2018-07-26T10:04:22.848Z,36.18
2018-07-26T10:06:51.551Z,36.03
2018-07-26T10:09:20.181Z,35.81
2018-07-26T10:11:48.902Z,35.53
2018-07-26T10:14:17.578Z,35.43
2018-07-26T10:16:46.272Z,35.33
2018-07-26T10:19:14.956Z,35.38
2018-07-26T10:21:43.717Z,35.37
2018-07-26T10:24:12.408Z,35.42
2018-07-26T10:26:41.100Z,35.75
2018-07-26T10:29:09.820Z,36.45
2018-07-26T10:31:38.574Z,35.19
2018-07-26T10:34:07.279Z,35.40
2018-07-26T10:36:36.061Z,35.84
2018-07-26T10:39:07.478Z,36.38
2018-07-26T10:41:36.182Z,36.68
2018-07-26T10:44:04.947Z,36.47
2018-07-26T10:46:33.682Z,36.58
2018-07-26T10:49:02.385Z,36.48
2018-07-26T10:51:31.568Z,37.12
2018-07-26T10:54:00.229Z,37.57
2018-07-26T10:56:29.281Z,37.34
2018-07-26T10:58:58.020Z,37.22
2018-07-26T11:01:26.742Z,37.69
2018-07-26T11:03:55.481Z,37.35
2018-07-26T11:06:24.141Z,37.35
2018-07-26T11:08:52.931Z,37.72
2018-07-26T11:11:22.486Z,37.74
2018-07-26T11:13:51.144Z,37.66
2018-07-26T11:16:19.923Z,37.82
2018-07-26T11:18:48.647Z,37.25
2018-07-26T11:21:17.352Z,37.66
2018-07-26T11:23:46.124Z,37.49
2018-07-26T11:26:14.964Z,38.38
2018-07-26T11:28:43.664Z,36.95
2018-07-26T11:31:12.411Z,37.07
2018-07-26T11:33:41.093Z,36.47
2018-07-26T11:36:10.132Z,35.88
2018-07-26T11:38:38.956Z,35.35
2018-07-26T11:41:07.735Z,35.08
2018-07-26T11:43:36.484Z,34.76
2018-07-26T11:46:05.349Z,34.92
2018-07-26T11:48:34.160Z,35.69
2018-07-26T11:51:02.935Z,35.28
2018-07-26T11:53:31.723Z,35.01
2018-07-26T11:56:00.536Z,34.78
2018-07-26T11:58:29.234Z,34.81
2018-07-26T12:00:57.938Z,34.44
2018-07-26T12:03:26.731Z,34.65
2018-07-26T12:05:55.425Z,35.30
2018-07-26T12:08:24.134Z,35.08
2018-07-26T12:10:52.986Z,34.78
2018-07-26T12:13:21.677Z,35.15
2018-07-26T12:15:50.381Z,35.57
2018-07-26T12:18:19.072Z,36.07
2018-07-26T12:20:47.755Z,35.96
2018-07-26T12:23:16.491Z,35.66
2018-07-26T12:25:45.289Z,35.69
2018-07-26T12:28:14.004Z,35.93
2018-07-26T12:30:42.748Z,35.93
2018-07-26T12:33:11.536Z,36.45
2018-07-26T12:35:40.396Z,35.83
2018-07-26T12:38:09.436Z,35.92
2018-07-26T12:40:38.168Z,36.08
2018-07-26T12:43:06.808Z,36.38
2018-07-26T12:45:35.555Z,36.61
2018-07-26T12:48:04.223Z,36.39
2018-07-26T12:50:33.021Z,36.70
2018-07-26T12:53:01.787Z,36.10
2018-07-26T12:55:30.519Z,35.83
2018-07-26T12:57:59.253Z,35.13
2018-07-26T13:00:27.953Z,35.28
2018-07-26T13:02:56.791Z,35.79
2018-07-26T13:05:25.542Z,35.94
2018-07-26T13:07:54.282Z,36.06
2018-07-26T13:10:23.016Z,36.23
2018-07-26T13:12:51.725Z,36.45
2018-07-26T13:15:20.484Z,36.17
2018-07-26T13:17:49.160Z,36.24
2018-07-26T13:20:17.890Z,35.82
2018-07-26T13:22:46.556Z,35.92
2018-07-26T13:25:15.206Z,35.86
2018-07-26T13:27:44.107Z,35.94
2018-07-26T13:30:12.963Z,35.60
2018-07-26T13:32:41.671Z,35.60
2018-07-26T13:35:10.359Z,35.80
2018-07-26T13:37:39.555Z,35.16
2018-07-26T13:40:08.218Z,35.57
2018-07-26T13:42:36.907Z,35.43
2018-07-26T13:45:06.225Z,35.50
2018-07-26T13:47:34.933Z,35.55
2018-07-26T13:50:03.782Z,35.43
2018-07-26T13:52:32.502Z,35.65
2018-07-26T13:55:01.260Z,35.83
2018-07-26T13:57:30.121Z,35.84
2018-07-26T13:59:59.079Z,35.98
2018-07-26T14:02:27.914Z,35.89
2018-07-26T14:04:56.637Z,36.17
2018-07-26T14:07:25.371Z,35.87
2018-07-26T14:09:54.061Z,35.95
2018-07-26T14:12:22.695Z,36.02
2018-07-26T14:14:51.375Z,35.83
2018-07-26T14:17:20.050Z,35.40
2018-07-26T14:19:48.809Z,35.15
2018-07-26T14:22:17.528Z,35.21
2018-07-26T14:24:46.364Z,35.44
2018-07-26T14:27:15.108Z,35.73
2018-07-26T14:29:43.751Z,35.70
2018-07-26T14:32:12.456Z,34.76
2018-07-26T14:34:41.165Z,34.95
2018-07-26T14:37:09.832Z,35.15
2018-07-26T14:39:38.541Z,35.30
2018-07-26T14:42:07.228Z,35.22
2018-07-26T14:44:35.910Z,35.18
2018-07-26T14:47:04.585Z,35.12
2018-07-26T14:49:33.378Z,34.92
2018-07-26T14:52:02.028Z,34.57
2018-07-26T14:54:30.763Z,34.67
2018-07-26T14:56:59.468Z,34.54
2018-07-26T14:59:28.297Z,34.45
2018-07-26T15:01:57.230Z,34.52
2018-07-26T15:04:26.089Z,34.48
2018-07-26T15:06:54.884Z,34.32
2018-07-26T15:09:23.626Z,34.15
2018-07-26T15:11:52.520Z,33.97
2018-07-26T15:14:21.378Z,33.76
2018-07-26T15:16:50.168Z,33.77
2018-07-26T15:19:19.061Z,33.81
2018-07-26T15:21:47.958Z,34.05
2018-07-26T15:24:16.693Z,33.78
2018-07-26T15:26:45.371Z,33.77
2018-07-26T15:29:14.778Z,33.56
2018-07-26T15:31:43.544Z,33.72
2018-07-26T15:34:12.279Z,33.86
2018-07-26T15:36:41.045Z,33.77
2018-07-26T15:39:10.605Z,33.85
2018-07-26T15:41:44.307Z,33.63
2018-07-26T15:44:14.434Z,33.77
2018-07-26T15:46:43.103Z,33.31
2018-07-26T15:49:12.164Z,33.26
2018-07-26T15:51:41.428Z,33.23
2018-07-26T15:54:10.082Z,33.16
2018-07-26T15:56:38.894Z,33.08
2018-07-26T15:59:07.595Z,33.20
2018-07-26T16:01:36.348Z,32.94
2018-07-26T16:04:05.053Z,32.78
2018-07-26T16:06:33.729Z,32.91
2018-07-26T16:09:02.492Z,32.84
2018-07-26T16:11:31.213Z,32.84
2018-07-26T16:13:59.928Z,32.66
2018-07-26T16:16:28.679Z,32.47
2018-07-26T16:18:57.453Z,32.52
2018-07-26T16:21:26.134Z,32.46
2018-07-26T16:23:54.872Z,32.42
2018-07-26T16:26:23.566Z,32.44
2018-07-26T16:28:52.503Z,32.38
2018-07-26T16:31:21.149Z,32.45
2018-07-26T16:33:49.870Z,32.33
2018-07-26T16:36:18.605Z,32.39
2018-07-26T16:38:47.376Z,32.38
2018-07-26T16:41:16.312Z,32.11
2018-07-26T16:43:45.000Z,32.10
2018-07-26T16:46:13.732Z,32.00
2018-07-26T16:48:42.532Z,31.89
2018-07-26T16:51:11.248Z,32.07
2018-07-26T16:53:39.989Z,31.85
2018-07-26T16:56:08.675Z,31.97
2018-07-26T16:58:37.436Z,31.80
2018-07-26T17:01:06.075Z,31.72
2018-07-26T17:03:34.792Z,31.69
2018-07-26T17:06:03.506Z,31.54
2018-07-26T17:08:32.214Z,31.52
2018-07-26T17:11:00.933Z,31.61
2018-07-26T17:13:29.704Z,31.50
2018-07-26T17:15:58.404Z,31.49
2018-07-26T17:18:27.141Z,31.40
2018-07-26T17:20:55.830Z,31.41
2018-07-26T17:23:24.522Z,31.43
2018-07-26T17:25:53.195Z,31.42
2018-07-26T17:28:21.837Z,31.28
2018-07-26T17:30:50.539Z,31.27
2018-07-26T17:33:19.257Z,31.20
2018-07-26T17:35:47.971Z,31.27
2018-07-26T17:38:16.700Z,31.18
2018-07-26T17:40:45.424Z,31.18
2018-07-26T17:43:14.180Z,31.06
2018-07-26T17:45:42.888Z,31.04
2018-07-26T17:48:11.596Z,30.91
2018-07-26T17:50:40.265Z,30.79
2018-07-26T17:53:09.003Z,30.79
2018-07-26T17:55:37.714Z,30.76
2018-07-26T17:58:06.426Z,30.92
2018-07-26T18:00:35.159Z,30.86
2018-07-26T18:03:03.862Z,30.85
2018-07-26T18:05:32.688Z,30.79
2018-07-26T18:08:01.452Z,30.69
2018-07-26T18:10:30.167Z,30.62
2018-07-26T18:12:58.856Z,30.50
2018-07-26T18:15:27.548Z,30.34
2018-07-26T18:17:56.239Z,30.39
2018-07-26T18:20:24.901Z,30.36
2018-07-26T18:22:53.587Z,30.28
2018-07-26T18:25:22.428Z,30.42
2018-07-26T18:27:51.144Z,30.30
2018-07-26T18:30:19.835Z,30.26
2018-07-26T18:32:48.547Z,30.23
2018-07-26T18:35:17.219Z,30.17
2018-07-26T18:37:45.898Z,29.91
2018-07-26T18:40:14.559Z,29.97
2018-07-26T18:42:43.271Z,29.83
2018-07-26T18:45:12.408Z,29.78
2018-07-26T18:47:41.131Z,29.64
2018-07-26T18:50:10.852Z,29.76
2018-07-26T18:52:39.665Z,29.51
2018-07-26T18:55:09.954Z,29.32
2018-07-26T18:57:39.232Z,29.42
2018-07-26T19:00:09.713Z,29.23
2018-07-26T19:02:38.425Z,29.32
2018-07-26T19:05:07.387Z,29.38
2018-07-26T19:07:36.442Z,29.37
2018-07-26T19:10:06.620Z,29.12
2018-07-26T19:12:36.003Z,29.06
2018-07-26T19:15:06.286Z,29.03
2018-07-26T19:17:35.089Z,29.17
2018-07-26T19:20:04.132Z,29.13
2018-07-26T19:22:32.874Z,28.86
2018-07-26T19:25:01.600Z,28.94
2018-07-26T19:27:30.243Z,28.82
2018-07-26T19:29:59.002Z,28.67
2018-07-26T19:32:27.741Z,28.84
2018-07-26T19:34:56.559Z,28.70
2018-07-26T19:37:25.379Z,28.45
2018-07-26T19:39:54.416Z,28.44
2018-07-26T19:42:23.111Z,28.47
2018-07-26T19:44:51.799Z,28.39
2018-07-26T19:47:20.453Z,28.32
2018-07-26T19:49:49.161Z,28.31
2018-07-26T19:52:17.848Z,28.24
2018-07-26T19:54:46.746Z,28.24
2018-07-26T19:57:15.430Z,28.19
2018-07-26T19:59:44.109Z,27.98
2018-07-26T20:02:13.022Z,27.94
2018-07-26T20:04:41.708Z,27.81
2018-07-26T20:07:10.472Z,27.93
2018-07-26T20:09:39.214Z,27.86
2018-07-26T20:12:07.912Z,27.95
2018-07-26T20:14:36.653Z,27.71
2018-07-26T20:17:05.661Z,27.66
2018-07-26T20:19:40.660Z,27.51
2018-07-26T20:22:09.345Z,27.52
2018-07-26T20:24:38.038Z,27.46
2018-07-26T20:27:06.841Z,27.43
2018-07-26T20:29:35.610Z,27.59
2018-07-26T20:32:04.457Z,27.41
2018-07-26T20:34:33.193Z,27.22
2018-07-26T20:37:01.952Z,27.27
2018-07-26T20:39:30.831Z,27.29
2018-07-26T20:41:59.609Z,27.37
2018-07-26T20:44:28.292Z,27.12
2018-07-26T20:46:57.047Z,27.11
2018-07-26T20:49:26.595Z,27.11
2018-07-26T20:51:55.343Z,27.07
2018-07-26T20:54:24.027Z,26.83
2018-07-26T20:56:52.795Z,26.99
2018-07-26T20:59:21.529Z,27.05
2018-07-26T21:01:50.740Z,26.68
2018-07-26T21:04:19.462Z,26.68
2018-07-26T21:06:48.176Z,26.76
2018-07-26T21:09:16.940Z,26.52
2018-07-26T21:11:46.058Z,26.50
2018-07-26T21:14:14.820Z,26.27
2018-07-26T21:16:44.086Z,26.35
2018-07-26T21:19:12.835Z,26.25
2018-07-26T21:21:41.601Z,26.31
2018-07-26T21:24:10.391Z,26.27
2018-07-26T21:26:39.088Z,26.26
2018-07-26T21:29:07.886Z,26.17
2018-07-26T21:31:36.586Z,26.20
2018-07-26T21:34:05.308Z,26.10
2018-07-26T21:36:34.258Z,26.08
2018-07-26T21:39:03.210Z,26.20
2018-07-26T21:41:31.977Z,26.23
2018-07-26T21:44:01.455Z,26.17
2018-07-26T21:46:30.269Z,25.98
2018-07-26T21:48:59.008Z,25.83
2018-07-26T21:51:27.773Z,25.82
2018-07-26T21:53:56.739Z,25.83
2018-07-26T21:56:25.453Z,25.81
2018-07-26T21:58:54.145Z,25.83
2018-07-26T22:01:22.919Z,25.57
2018-07-26T22:03:51.668Z,25.54
2018-07-26T22:06:20.401Z,25.60
2018-07-26T22:08:49.098Z,25.54
2018-07-26T22:11:17.875Z,25.71
2018-07-26T22:13:46.617Z,25.64
2018-07-26T22:16:15.436Z,25.49
2018-07-26T22:18:44.160Z,25.45
2018-07-26T22:21:12.929Z,25.50
2018-07-26T22:23:41.837Z,25.43
2018-07-26T22:26:10.552Z,25.34
2018-07-26T22:28:39.280Z,25.36
2018-07-26T22:31:08.111Z,25.44
2018-07-26T22:33:36.827Z,25.47
2018-07-26T22:36:05.660Z,25.21
2018-07-26T22:38:34.487Z,25.07
2018-07-26T22:41:03.295Z,25.05
2018-07-26T22:43:32.024Z,25.00
2018-07-26T22:46:00.780Z,24.98
2018-07-26T22:48:29.546Z,24.93
2018-07-26T22:50:58.316Z,24.94
2018-07-26T22:53:27.273Z,24.92
2018-07-26T22:55:55.939Z,25.03
2018-07-26T22:58:25.039Z,24.99
2018-07-26T23:00:54.181Z,24.88
2018-07-26T23:03:22.853Z,24.84
2018-07-26T23:05:51.624Z,24.82
2018-07-26T23:08:20.368Z,24.79
2018-07-26T23:10:49.096Z,24.83
2018-07-26T23:13:17.889Z,24.88
2018-07-26T23:15:46.620Z,24.80
2018-07-26T23:18:15.303Z,24.73
2018-07-26T23:20:44.071Z,24.77
2018-07-26T23:23:12.805Z,24.66
2018-07-26T23:25:41.577Z,24.71
2018-07-26T23:28:10.505Z,24.66
2018-07-26T23:30:39.248Z,24.55
2018-07-26T23:33:08.985Z,24.74
2018-07-26T23:35:37.778Z,24.85
2018-07-26T23:38:06.491Z,24.92
2018-07-26T23:40:35.171Z,24.72
2018-07-26T23:43:03.894Z,24.72
2018-07-26T23:45:32.643Z,24.59
2018-07-26T23:48:01.345Z,24.57
2018-07-26T23:50:30.112Z,24.39
2018-07-26T23:52:58.853Z,24.40
2018-07-26T23:55:27.570Z,24.19
2018-07-26T23:57:56.272Z,24.44
